createdAt,value
2018-10-12T00:00:38.160Z,14.92
2018-10-12T00:03:06.611Z,14.82
2018-10-12T00:05:34.724Z,14.84
2018-10-12T00:08:02.869Z,14.72
2018-10-12T00:10:30.992Z,14.69
2018-10-12T00:12:59.089Z,14.79
2018-10-12T00:15:27.213Z,14.81
2018-10-12T00:17:55.712Z,14.69
2018-10-12T00:20:23.828Z,14.69
2018-10-12T00:22:51.962Z,14.68
2018-10-12T00:25:20.115Z,14.44
2018-10-12T00:27:48.237Z,14.33
2018-10-12T00:30:16.340Z,14.40
2018-10-12T00:32:44.696Z,14.34
2018-10-12T00:35:12.820Z,14.27
2018-10-12T00:37:40.934Z,14.37
2018-10-12T00:40:09.037Z,14.44
2018-10-12T00:42:37.143Z,14.35
2018-10-12T00:45:05.353Z,14.34
2018-10-12T00:47:33.485Z,14.31
2018-10-12T00:50:01.640Z,14.29
2018-10-12T00:52:29.793Z,14.32
2018-10-12T00:54:57.964Z,14.27
2018-10-12T00:57:26.097Z,14.16
2018-10-12T00:59:54.225Z,14.18
2018-10-12T01:02:22.376Z,14.22
2018-10-12T01:04:55.862Z,14.14
2018-10-12T01:07:23.980Z,14.10
2018-10-12T01:09:56.527Z,14.02
2018-10-12T01:12:40.246Z,14.02
2018-10-12T01:15:08.361Z,14.02
2018-10-12T01:17:37.095Z,14.04
2018-10-12T01:20:05.905Z,13.99
2018-10-12T01:22:34.073Z,14.04
2018-10-12T01:25:03.273Z,14.11
2018-10-12T01:27:31.660Z,13.95
2018-10-12T01:30:00.026Z,13.92
2018-10-12T01:32:33.706Z,13.98
2018-10-12T01:35:01.875Z,14.00
2018-10-12T01:37:30.068Z,13.95
2018-10-12T01:39:58.209Z,13.88
2018-10-12T01:42:26.333Z,13.77
2018-10-12T01:44:54.464Z,13.69
2018-10-12T01:47:22.576Z,13.63
2018-10-12T01:49:50.683Z,13.63
2018-10-12T01:52:18.800Z,13.59
2018-10-12T01:54:46.917Z,13.57
2018-10-12T01:57:15.016Z,13.56
2018-10-12T01:59:43.145Z,13.67
2018-10-12T02:02:11.248Z,13.80
2018-10-12T02:04:39.369Z,13.87
2018-10-12T02:07:07.512Z,13.69
2018-10-12T02:09:35.639Z,13.65
2018-10-12T02:12:03.760Z,13.67
2018-10-12T02:14:32.092Z,13.61
2018-10-12T02:17:00.466Z,13.73
2018-10-12T02:19:28.575Z,13.60
2018-10-12T02:21:56.693Z,13.52
2018-10-12T02:24:24.869Z,13.54
2018-10-12T02:26:53.014Z,13.62
2018-10-12T02:29:21.138Z,13.73
2018-10-12T02:31:49.256Z,13.58
2018-10-12T02:34:17.365Z,13.62
2018-10-12T02:36:45.536Z,13.47
2018-10-12T02:39:14.986Z,13.37
2018-10-12T02:41:43.101Z,13.28
2018-10-12T02:44:11.761Z,13.12
2018-10-12T02:46:39.926Z,13.04
2018-10-12T02:49:08.148Z,13.00
2018-10-12T02:51:36.350Z,13.06
2018-10-12T02:54:04.465Z,13.03
2018-10-12T02:56:32.590Z,13.03
2018-10-12T02:59:00.756Z,12.99
2018-10-12T03:01:28.881Z,12.92
2018-10-12T03:03:57.000Z,12.87
2018-10-12T03:06:25.138Z,12.88
2018-10-12T03:08:53.345Z,12.91
2018-10-12T03:11:21.488Z,12.87
2018-10-12T03:13:49.993Z,12.91
2018-10-12T03:16:18.124Z,12.89
2018-10-12T03:18:46.240Z,12.81
2018-10-12T03:21:14.349Z,12.71
2018-10-12T03:23:42.431Z,12.72
2018-10-12T03:26:10.548Z,12.72
2018-10-12T03:28:38.664Z,12.67
2018-10-12T03:31:07.189Z,12.63
2018-10-12T03:33:35.569Z,12.70
2018-10-12T03:36:04.193Z,12.72
2018-10-12T03:38:32.316Z,12.70
2018-10-12T03:41:00.408Z,12.77
2018-10-12T03:43:28.529Z,12.84
2018-10-12T03:45:56.653Z,13.03
2018-10-12T03:48:24.765Z,13.17
2018-10-12T03:50:52.877Z,13.25
2018-10-12T03:53:20.985Z,13.34
2018-10-12T03:55:49.085Z,13.43
2018-10-12T03:58:17.219Z,13.40
2018-10-12T04:00:45.352Z,13.39
2018-10-12T04:03:13.497Z,13.46
2018-10-12T04:05:41.605Z,13.41
2018-10-12T04:08:09.736Z,13.49
2018-10-12T04:10:37.868Z,13.66
2018-10-12T04:13:05.995Z,13.57
2018-10-12T04:15:34.153Z,13.71
2018-10-12T04:18:02.292Z,13.77
2018-10-12T04:20:30.403Z,13.65
2018-10-12T04:22:58.509Z,13.68
2018-10-12T04:25:26.655Z,13.79
2018-10-12T04:27:54.760Z,13.92
2018-10-12T04:30:22.877Z,13.88
2018-10-12T04:32:50.997Z,13.76
2018-10-12T04:35:19.127Z,13.80
2018-10-12T04:37:47.266Z,13.94
2018-10-12T04:40:26.124Z,13.85
2018-10-12T04:42:54.369Z,13.76
2018-10-12T04:45:22.921Z,13.63
2018-10-12T04:47:51.220Z,13.62
2018-10-12T04:50:19.378Z,13.80
2018-10-12T04:52:47.525Z,13.71
2018-10-12T04:55:15.627Z,13.79
2018-10-12T04:57:43.768Z,13.80
2018-10-12T05:00:11.893Z,13.68
2018-10-12T05:02:40.030Z,13.66
2018-10-12T05:05:08.169Z,13.59
2018-10-12T05:07:36.272Z,13.40
2018-10-12T05:10:04.405Z,13.42
2018-10-12T05:12:32.499Z,13.43
2018-10-12T05:15:00.609Z,13.23
2018-10-12T05:17:28.759Z,13.13
2018-10-12T05:19:56.856Z,13.08
2018-10-12T05:22:25.035Z,13.16
2018-10-12T05:24:53.188Z,13.12
2018-10-12T05:27:21.324Z,13.08
2018-10-12T05:29:49.452Z,13.17
2018-10-12T05:32:17.547Z,12.93
2018-10-12T05:34:45.683Z,13.04
2018-10-12T05:37:13.794Z,13.08
2018-10-12T05:39:41.918Z,12.97
2018-10-12T05:42:09.997Z,12.90
2018-10-12T05:44:38.124Z,12.94
2018-10-12T05:47:06.238Z,12.99
2018-10-12T05:49:45.633Z,13.05
2018-10-12T05:52:13.721Z,13.06
2018-10-12T05:54:41.869Z,13.12
2018-10-12T05:57:09.985Z,13.13
2018-10-12T05:59:38.118Z,13.19
2018-10-12T06:02:06.404Z,13.17
2018-10-12T06:04:34.507Z,13.16
2018-10-12T06:07:02.575Z,13.25
2018-10-12T06:09:30.759Z,13.25
2018-10-12T06:11:58.844Z,13.22
2018-10-12T06:14:26.940Z,13.17
2018-10-12T06:16:55.016Z,12.98
2018-10-12T06:19:23.137Z,12.87
2018-10-12T06:21:51.240Z,12.76
2018-10-12T06:24:19.359Z,12.79
2018-10-12T06:26:47.624Z,12.85
2018-10-12T06:29:15.658Z,12.77
2018-10-12T06:31:43.757Z,12.82
2018-10-12T06:34:11.861Z,12.86
2018-10-12T06:36:39.984Z,12.80
2018-10-12T06:39:08.140Z,12.93
2018-10-12T06:41:36.383Z,12.90
2018-10-12T06:44:04.395Z,12.98
2018-10-12T06:46:32.553Z,13.12
2018-10-12T06:49:00.679Z,13.14
2018-10-12T06:51:28.805Z,13.28
2018-10-12T06:53:57.035Z,13.35
2018-10-12T06:56:25.068Z,13.43
2018-10-12T06:58:53.216Z,13.45
2018-10-12T07:01:21.365Z,13.45
2018-10-12T07:03:50.118Z,13.62
2018-10-12T07:06:18.228Z,13.72
2018-10-12T07:08:46.396Z,13.84
2018-10-12T07:11:14.514Z,13.92
2018-10-12T07:13:42.663Z,13.92
2018-10-12T07:16:10.765Z,14.16
2018-10-12T07:18:38.893Z,14.30
2018-10-12T07:21:07.079Z,14.38
2018-10-12T07:23:35.164Z,14.34
2018-10-12T07:26:03.354Z,14.50
2018-10-12T07:28:31.423Z,14.35
2018-10-12T07:30:59.536Z,14.42
2018-10-12T07:33:27.613Z,14.55
2018-10-12T07:35:55.716Z,14.78
2018-10-12T07:38:23.834Z,14.85
2018-10-12T07:40:51.970Z,14.93
2018-10-12T07:43:20.057Z,15.13
2018-10-12T07:45:48.172Z,15.24
2018-10-12T07:48:16.312Z,15.41
2018-10-12T07:50:44.393Z,15.62
2018-10-12T07:53:12.518Z,15.76
2018-10-12T07:55:40.609Z,15.94
2018-10-12T07:58:08.740Z,16.05
2018-10-12T08:00:36.881Z,16.22
2018-10-12T08:03:04.953Z,16.42
2018-10-12T08:05:33.072Z,16.32
2018-10-12T08:08:01.144Z,16.35
2018-10-12T08:10:29.285Z,16.47
2018-10-12T08:12:57.397Z,16.56
2018-10-12T08:15:25.485Z,16.81
2018-10-12T08:17:53.575Z,16.91
2018-10-12T08:20:21.718Z,16.90
2018-10-12T08:22:49.821Z,17.11
2018-10-12T08:25:17.936Z,17.34
2018-10-12T08:27:46.049Z,17.45
2018-10-12T08:30:14.192Z,17.70
2018-10-12T08:32:42.320Z,17.49
2018-10-12T08:35:10.457Z,17.71
2018-10-12T08:37:38.573Z,17.74
2018-10-12T08:40:06.990Z,17.87
2018-10-12T08:42:35.087Z,18.00
2018-10-12T08:45:03.202Z,18.21
2018-10-12T08:47:31.392Z,18.37
2018-10-12T08:49:59.538Z,18.47
2018-10-12T08:52:27.701Z,18.50
2018-10-12T08:54:55.850Z,18.72
2018-10-12T08:57:24.048Z,18.72
2018-10-12T08:59:52.165Z,18.82
2018-10-12T09:02:20.401Z,18.99
2018-10-12T09:04:48.558Z,19.05
2018-10-12T09:07:16.744Z,19.29
2018-10-12T09:09:44.944Z,19.27
2018-10-12T09:12:13.074Z,19.60
2018-10-12T09:14:41.223Z,19.72
2018-10-12T09:17:09.390Z,19.72
2018-10-12T09:19:37.511Z,19.80
2018-10-12T09:22:05.669Z,20.06
2018-10-12T09:24:33.833Z,20.17
2018-10-12T09:27:01.960Z,19.79
2018-10-12T09:29:30.181Z,19.98
2018-10-12T09:31:58.322Z,19.81
2018-10-12T09:34:26.434Z,19.96
2018-10-12T09:36:54.627Z,19.73
2018-10-12T09:39:22.728Z,20.01
2018-10-12T09:41:50.860Z,20.00
2018-10-12T09:44:19.025Z,19.99
2018-10-12T09:46:47.202Z,20.07
2018-10-12T09:49:15.370Z,20.06
2018-10-12T09:51:43.560Z,20.20
2018-10-12T09:54:11.821Z,20.43
2018-10-12T09:56:40.018Z,20.44
2018-10-12T09:59:08.169Z,20.35
2018-10-12T10:01:41.608Z,20.40
2018-10-12T10:04:15.201Z,20.49
2018-10-12T10:06:43.363Z,20.57
2018-10-12T10:09:11.503Z,20.67
2018-10-12T10:11:39.653Z,20.78
2018-10-12T10:14:07.809Z,20.74
2018-10-12T10:16:36.137Z,20.76
2018-10-12T10:19:04.371Z,20.83
2018-10-12T10:21:32.456Z,20.81
2018-10-12T10:24:00.615Z,21.07
2018-10-12T10:26:28.982Z,21.19
2018-10-12T10:28:57.165Z,21.30
2018-10-12T10:31:25.306Z,21.52
2018-10-12T10:33:53.449Z,21.59
2018-10-12T10:36:21.608Z,21.58
2018-10-12T10:38:49.801Z,21.79
2018-10-12T10:41:18.243Z,21.37
2018-10-12T10:43:46.380Z,21.54
2018-10-12T10:46:14.569Z,21.79
2018-10-12T10:48:42.689Z,21.29
2018-10-12T10:51:10.805Z,21.42
2018-10-12T10:53:39.334Z,21.67
2018-10-12T10:56:07.587Z,21.68
2018-10-12T10:58:35.836Z,21.41
2018-10-12T11:01:04.073Z,21.50
2018-10-12T11:03:32.113Z,21.48
2018-10-12T11:06:00.310Z,21.53
2018-10-12T11:08:28.445Z,21.70
2018-10-12T11:10:56.860Z,21.48
2018-10-12T11:13:25.171Z,21.51
2018-10-12T11:15:53.305Z,21.63
2018-10-12T11:18:21.486Z,21.89
2018-10-12T11:20:49.685Z,21.98
2018-10-12T11:23:17.892Z,22.08
2018-10-12T11:25:46.057Z,22.06
2018-10-12T11:28:14.400Z,22.11
2018-10-12T11:30:42.620Z,22.36
2018-10-12T11:33:10.788Z,22.40
2018-10-12T11:35:38.916Z,22.50
2018-10-12T11:38:08.720Z,22.65
2018-10-12T11:40:36.968Z,22.68
2018-10-12T11:43:16.393Z,22.68
2018-10-12T11:45:44.593Z,22.66
2018-10-12T11:48:12.754Z,22.82
2018-10-12T11:50:40.860Z,22.99
2018-10-12T11:53:09.056Z,23.16
2018-10-12T11:55:37.132Z,23.06
2018-10-12T11:58:05.253Z,22.84
2018-10-12T12:00:34.636Z,23.13
2018-10-12T12:03:02.798Z,23.13
2018-10-12T12:05:30.901Z,23.23
2018-10-12T12:07:59.053Z,23.28
2018-10-12T12:10:27.201Z,23.27
2018-10-12T12:12:55.369Z,23.43
2018-10-12T12:15:23.497Z,23.51
2018-10-12T12:17:51.598Z,23.35
2018-10-12T12:20:19.719Z,23.39
2018-10-12T12:22:47.842Z,23.35
2018-10-12T12:25:16.000Z,23.57
2018-10-12T12:27:44.153Z,23.56
2018-10-12T12:30:12.281Z,23.61
2018-10-12T12:32:40.428Z,23.81
2018-10-12T12:35:08.922Z,23.79
2018-10-12T12:37:36.709Z,23.77
2018-10-12T12:40:04.939Z,23.77
2018-10-12T12:42:33.110Z,24.03
2018-10-12T12:45:01.232Z,24.08
2018-10-12T12:47:29.385Z,24.27
2018-10-12T12:49:57.460Z,24.11
2018-10-12T12:52:25.565Z,23.91
2018-10-12T12:54:53.755Z,23.97
2018-10-12T12:57:21.836Z,23.96
2018-10-12T12:59:49.928Z,24.07
2018-10-12T13:02:18.053Z,24.01
2018-10-12T13:04:46.172Z,23.97
2018-10-12T13:07:14.301Z,24.02
2018-10-12T13:09:42.381Z,23.80
2018-10-12T13:12:10.525Z,23.86
2018-10-12T13:14:38.665Z,24.03
2018-10-12T13:17:06.833Z,24.14
2018-10-12T13:19:34.948Z,23.90
2018-10-12T13:22:03.096Z,23.85
2018-10-12T13:24:37.968Z,24.05
2018-10-12T13:27:06.246Z,23.99
2018-10-12T13:29:34.397Z,24.05
2018-10-12T13:32:02.656Z,24.02
2018-10-12T13:34:30.809Z,23.97
2018-10-12T13:36:58.941Z,23.88
2018-10-12T13:39:27.094Z,23.94
2018-10-12T13:41:55.373Z,23.94
2018-10-12T13:44:23.524Z,23.86
2018-10-12T13:46:51.673Z,23.98
2018-10-12T13:49:19.846Z,23.89
2018-10-12T13:54:22.384Z,24.11
2018-10-12T13:56:54.624Z,24.01
2018-10-12T13:59:22.731Z,23.94
2018-10-12T14:01:50.858Z,23.88
2018-10-12T14:04:19.001Z,23.92
2018-10-12T14:06:47.234Z,23.78
2018-10-12T14:09:15.375Z,23.84
2018-10-12T14:11:43.567Z,23.81
2018-10-12T14:14:11.797Z,23.94
2018-10-12T14:16:39.992Z,23.70
2018-10-12T14:19:08.376Z,23.78
2018-10-12T14:21:44.049Z,23.85
2018-10-12T14:24:12.313Z,23.89
2018-10-12T14:26:40.577Z,23.79
2018-10-12T14:29:08.768Z,23.59
2018-10-12T14:31:37.020Z,23.56
2018-10-12T14:34:05.209Z,23.52
2018-10-12T14:36:33.539Z,23.66
2018-10-12T14:39:01.672Z,23.54
2018-10-12T14:41:29.952Z,23.26
2018-10-12T14:43:58.229Z,23.42
2018-10-12T14:46:26.373Z,23.55
2018-10-12T14:48:54.685Z,23.50
2018-10-12T14:51:23.002Z,23.48
2018-10-12T14:53:51.210Z,23.59
2018-10-12T14:56:19.447Z,23.64
2018-10-12T14:58:47.576Z,23.46
2018-10-12T15:01:15.677Z,23.42
2018-10-12T15:03:43.856Z,23.28
2018-10-12T15:06:11.994Z,23.13
2018-10-12T15:08:40.141Z,23.18
2018-10-12T15:11:08.586Z,23.16
2018-10-12T15:13:36.769Z,23.05
2018-10-12T15:16:04.918Z,23.09
2018-10-12T15:18:33.089Z,23.11
2018-10-12T15:21:01.335Z,22.84
2018-10-12T15:23:29.402Z,22.92
2018-10-12T15:25:57.818Z,22.91
2018-10-12T15:28:25.952Z,22.70
2018-10-12T15:30:54.073Z,22.74
2018-10-12T15:33:22.256Z,22.75
2018-10-12T15:35:50.385Z,22.77
2018-10-12T15:38:18.622Z,22.67
2018-10-12T15:40:46.785Z,22.68
2018-10-12T15:43:14.978Z,22.57
2018-10-12T15:45:43.153Z,22.39
2018-10-12T15:48:11.347Z,22.29
2018-10-12T15:50:39.492Z,22.29
2018-10-12T15:53:07.677Z,22.12
2018-10-12T15:55:35.829Z,22.10
2018-10-12T15:58:03.994Z,22.05
2018-10-12T16:00:32.124Z,21.96
2018-10-12T16:03:00.231Z,21.78
2018-10-12T16:05:28.428Z,21.69
2018-10-12T16:07:56.622Z,21.65
2018-10-12T16:10:25.632Z,21.55
2018-10-12T16:12:53.781Z,21.45
2018-10-12T16:15:21.923Z,21.36
2018-10-12T16:17:50.097Z,21.32
2018-10-12T16:20:18.225Z,21.34
2018-10-12T16:22:46.396Z,21.15
2018-10-12T16:25:25.809Z,20.82
2018-10-12T16:27:53.984Z,20.57
2018-10-12T16:30:22.184Z,20.29
2018-10-12T16:32:50.321Z,20.32
2018-10-12T16:35:18.493Z,20.22
2018-10-12T16:37:46.701Z,20.18
2018-10-12T16:40:14.858Z,20.12
2018-10-12T16:42:42.992Z,19.91
2018-10-12T16:45:11.144Z,19.71
2018-10-12T16:47:39.285Z,19.66
2018-10-12T16:50:07.473Z,19.63
2018-10-12T16:52:35.675Z,19.56
2018-10-12T16:55:03.864Z,19.51
2018-10-12T16:57:35.146Z,19.37
2018-10-12T17:00:03.256Z,19.21
2018-10-12T17:02:31.392Z,19.08
2018-10-12T17:04:59.492Z,18.92
2018-10-12T17:07:27.608Z,18.87
2018-10-12T17:09:55.960Z,18.58
2018-10-12T17:12:24.162Z,18.51
2018-10-12T17:14:52.278Z,18.43
2018-10-12T17:17:20.425Z,18.41
2018-10-12T17:19:48.611Z,18.36
2018-10-12T17:22:17.224Z,18.27
2018-10-12T17:24:45.339Z,18.17
2018-10-12T17:27:13.692Z,18.07
2018-10-12T17:29:41.860Z,18.03
2018-10-12T17:32:10.025Z,17.88
2018-10-12T17:34:38.181Z,17.80
2018-10-12T17:37:06.341Z,17.80
2018-10-12T17:39:34.567Z,17.69
2018-10-12T17:42:11.677Z,17.59
2018-10-12T17:44:40.076Z,17.59
2018-10-12T17:47:08.380Z,17.50
2018-10-12T17:49:36.605Z,17.47
2018-10-12T17:52:04.782Z,17.42
2018-10-12T17:54:33.070Z,17.31
2018-10-12T17:57:01.564Z,17.26
2018-10-12T17:59:29.705Z,17.27
2018-10-12T18:01:57.878Z,17.12
2018-10-12T18:04:26.086Z,17.08
2018-10-12T18:06:54.253Z,17.09
2018-10-12T18:09:22.509Z,16.90
2018-10-12T18:11:50.689Z,16.84
2018-10-12T18:14:18.912Z,16.79
2018-10-12T18:16:47.000Z,16.72
2018-10-12T18:19:15.228Z,16.77
2018-10-12T18:21:43.373Z,16.61
2018-10-12T18:24:11.631Z,16.58
2018-10-12T18:26:39.775Z,16.62
2018-10-12T18:29:08.060Z,16.62
2018-10-12T18:31:36.291Z,16.67
2018-10-12T18:34:04.414Z,16.70
2018-10-12T18:36:33.077Z,16.83
2018-10-12T18:39:01.265Z,16.94
2018-10-12T18:41:29.393Z,16.89
2018-10-12T18:43:57.766Z,16.99
2018-10-12T18:46:26.393Z,16.97
2018-10-12T18:48:54.580Z,17.07
2018-10-12T18:51:22.718Z,17.04
2018-10-12T18:53:50.851Z,16.93
2018-10-12T18:56:18.982Z,17.00
2018-10-12T18:58:47.177Z,17.05
2018-10-12T19:01:15.353Z,17.07
2018-10-12T19:03:43.484Z,17.08
2018-10-12T19:06:11.806Z,16.97
2018-10-12T19:08:39.937Z,17.04
2018-10-12T19:11:08.415Z,17.05
2018-10-12T19:13:36.632Z,17.17
2018-10-12T19:16:04.680Z,17.46
2018-10-12T19:18:32.818Z,17.55
2018-10-12T19:21:01.010Z,17.56
2018-10-12T19:23:30.382Z,17.65
2018-10-12T19:25:58.424Z,17.65
2018-10-12T19:28:26.580Z,17.67
2018-10-12T19:30:54.709Z,17.71
2018-10-12T19:33:22.844Z,17.87
2018-10-12T19:35:50.958Z,18.02
2018-10-12T19:38:19.135Z,18.11
2018-10-12T19:40:47.354Z,18.22
2018-10-12T19:43:15.499Z,18.27
2018-10-12T19:45:43.634Z,18.28
2018-10-12T19:48:11.762Z,18.22
2018-10-12T19:50:39.906Z,18.08
2018-10-12T19:53:08.064Z,18.20
2018-10-12T19:55:36.200Z,18.10
2018-10-12T19:58:04.364Z,18.08
2018-10-12T20:00:32.493Z,18.00
2018-10-12T20:03:00.618Z,18.13
2018-10-12T20:05:28.748Z,18.35
2018-10-12T20:07:56.899Z,18.36
2018-10-12T20:10:25.172Z,18.45
2018-10-12T20:12:53.498Z,18.37
2018-10-12T20:15:21.684Z,18.18
2018-10-12T20:17:50.153Z,18.33
2018-10-12T20:20:18.229Z,18.21
2018-10-12T20:22:46.392Z,18.14
2018-10-12T20:25:14.529Z,17.99
2018-10-12T20:27:42.697Z,17.96
2018-10-12T20:30:10.835Z,17.95
2018-10-12T20:32:38.950Z,17.94
2018-10-12T20:35:07.125Z,18.02
2018-10-12T20:37:35.285Z,18.08
2018-10-12T20:40:03.434Z,18.15
2018-10-12T20:42:31.916Z,18.17
2018-10-12T20:45:00.986Z,18.15
2018-10-12T20:47:29.178Z,18.01
2018-10-12T20:49:57.340Z,18.08
2018-10-12T20:52:25.454Z,17.94
2018-10-12T20:54:53.564Z,17.95
2018-10-12T20:57:21.686Z,17.95
2018-10-12T20:59:51.389Z,17.99
2018-10-12T21:02:20.107Z,18.03
2018-10-12T21:04:48.335Z,17.95
2018-10-12T21:07:18.515Z,17.92
2018-10-12T21:09:46.630Z,17.98
2018-10-12T21:12:14.761Z,18.02
2018-10-12T21:14:43.308Z,17.91
2018-10-12T21:17:13.522Z,17.84
2018-10-12T21:19:41.644Z,17.73
2018-10-12T21:22:09.846Z,17.60
2018-10-12T21:24:37.977Z,17.65
2018-10-12T21:27:06.716Z,17.56
2018-10-12T21:29:34.823Z,17.58
2018-10-12T21:32:02.973Z,17.62
2018-10-12T21:34:31.113Z,17.68
2018-10-12T21:36:59.241Z,17.71
2018-10-12T21:39:27.397Z,17.78
2018-10-12T21:41:55.504Z,17.65
2018-10-12T21:44:23.633Z,17.70
2018-10-12T21:46:51.769Z,17.68
2018-10-12T21:49:19.908Z,17.66
2018-10-12T21:51:48.058Z,17.71
2018-10-12T21:54:16.209Z,17.58
2018-10-12T21:56:44.368Z,17.73
2018-10-12T21:59:12.474Z,17.75
2018-10-12T22:01:40.600Z,17.80
2018-10-12T22:04:08.749Z,17.73
2018-10-12T22:06:36.895Z,17.72
2018-10-12T22:09:07.861Z,17.66
2018-10-12T22:11:36.024Z,17.77
2018-10-12T22:14:04.771Z,17.77
2018-10-12T22:16:32.806Z,17.78
2018-10-12T22:19:00.941Z,17.70
2018-10-12T22:21:29.048Z,17.51
2018-10-12T22:23:57.404Z,17.48
2018-10-12T22:26:25.526Z,17.26
2018-10-12T22:28:53.665Z,17.24
2018-10-12T22:31:21.776Z,17.24
2018-10-12T22:38:47.760Z,16.74
2018-10-12T22:41:15.909Z,16.59
2018-10-12T22:43:44.054Z,16.45
2018-10-12T22:46:12.161Z,16.45
2018-10-12T22:48:40.301Z,16.38
2018-10-12T22:51:08.395Z,16.21
2018-10-12T22:53:36.669Z,16.30
2018-10-12T22:56:04.972Z,16.34
2018-10-12T22:58:33.120Z,16.38
2018-10-12T23:01:01.230Z,16.31
2018-10-12T23:03:29.344Z,16.26
2018-10-12T23:05:57.473Z,16.25
2018-10-12T23:08:25.598Z,16.27
2018-10-12T23:10:53.740Z,16.19
2018-10-12T23:13:21.855Z,16.08
2018-10-12T23:15:49.997Z,16.03
2018-10-12T23:18:18.136Z,16.09
2018-10-12T23:20:46.262Z,16.11
2018-10-12T23:23:14.373Z,16.07
2018-10-12T23:25:42.505Z,15.98
2018-10-12T23:28:10.665Z,16.02
2018-10-12T23:30:38.762Z,16.02
2018-10-12T23:33:18.196Z,16.08
2018-10-12T23:35:46.313Z,16.13
2018-10-12T23:38:14.442Z,16.14
2018-10-12T23:40:42.597Z,16.11
2018-10-12T23:43:10.748Z,16.08
2018-10-12T23:45:38.859Z,16.11
2018-10-12T23:48:07.013Z,16.21
2018-10-12T23:50:35.113Z,16.23
2018-10-12T23:53:03.256Z,16.21
2018-10-12T23:55:31.358Z,16.19
2018-10-12T23:57:59.460Z,16.09
